createdAt,value
2022-11-23T00:00:06.128Z,982.85
2022-11-23T00:01:06.738Z,982.91
2022-11-23T00:02:06.138Z,982.89
2022-11-23T00:03:06.082Z,982.88
2022-11-23T00:04:06.071Z,982.90
2022-11-23T00:05:06.094Z,982.89
2022-11-23T00:06:06.050Z,982.89
2022-11-23T00:07:06.098Z,982.84
2022-11-23T00:08:06.197Z,982.88
2022-11-23T00:09:06.028Z,982.87
2022-11-23T00:10:06.050Z,982.96
2022-11-23T00:11:06.015Z,982.92
2022-11-23T00:12:06.002Z,982.85
2022-11-23T00:13:05.994Z,982.89
2022-11-23T00:14:05.989Z,982.87
2022-11-23T00:15:06.003Z,982.82
2022-11-23T00:16:05.969Z,982.89
2022-11-23T00:17:05.969Z,982.85
2022-11-23T00:18:05.957Z,982.91
2022-11-23T00:19:05.955Z,982.88
2022-11-23T00:20:05.974Z,982.82
2022-11-23T00:21:05.935Z,982.80
2022-11-23T00:22:05.930Z,982.83
2022-11-23T00:23:05.922Z,982.87
2022-11-23T00:24:05.910Z,982.87
2022-11-23T00:25:06.230Z,982.82
2022-11-23T00:26:05.893Z,982.86
2022-11-23T00:27:05.889Z,982.85
2022-11-23T00:28:05.880Z,982.89
2022-11-23T00:29:05.866Z,982.85
2022-11-23T00:30:05.890Z,982.86
2022-11-23T00:31:05.853Z,982.91
2022-11-23T00:32:05.847Z,982.86
2022-11-23T00:33:05.832Z,982.87
2022-11-23T00:34:05.825Z,982.89
2022-11-23T00:35:05.848Z,982.91
2022-11-23T00:36:05.822Z,982.94
2022-11-23T00:37:05.795Z,982.88
2022-11-23T00:38:05.797Z,982.99
2022-11-23T00:39:05.783Z,982.93
2022-11-23T00:40:05.808Z,982.97
2022-11-23T00:41:05.775Z,983.03
2022-11-23T00:42:05.763Z,982.95
2022-11-23T00:43:05.812Z,982.97
2022-11-23T00:44:05.737Z,982.93
2022-11-23T00:45:06.764Z,982.99
2022-11-23T00:46:05.747Z,983.02
2022-11-23T00:47:06.720Z,983.00
2022-11-23T00:48:05.777Z,983.02
2022-11-23T00:49:05.710Z,983.02
2022-11-23T00:50:05.724Z,983.04
2022-11-23T00:51:05.700Z,983.02
2022-11-23T00:52:05.716Z,982.98
2022-11-23T00:53:05.667Z,983.00
2022-11-23T00:54:05.685Z,983.03
2022-11-23T00:55:05.699Z,983.00
2022-11-23T00:56:05.689Z,982.99
2022-11-23T00:57:05.639Z,983.01
2022-11-23T00:58:05.632Z,982.99
2022-11-23T00:59:05.619Z,983.03
2022-11-23T01:00:05.647Z,983.04
2022-11-23T01:01:05.670Z,983.09
2022-11-23T01:02:05.597Z,983.03
2022-11-23T01:03:05.577Z,983.04
2022-11-23T01:04:06.666Z,983.05
2022-11-23T01:05:05.801Z,983.03
2022-11-23T01:06:05.562Z,983.05
2022-11-23T01:07:05.608Z,983.06
2022-11-23T01:08:05.559Z,983.06
2022-11-23T01:09:05.547Z,983.09
2022-11-23T01:10:05.611Z,983.05
2022-11-23T01:11:05.528Z,983.06
2022-11-23T01:12:05.534Z,983.08
2022-11-23T01:13:05.512Z,983.13
2022-11-23T01:14:05.498Z,983.09
2022-11-23T01:15:05.539Z,983.08
2022-11-23T01:16:06.496Z,983.06
2022-11-23T01:17:05.482Z,983.12
2022-11-23T01:18:05.483Z,983.06
2022-11-23T01:19:05.556Z,983.07
2022-11-23T01:20:05.495Z,983.08
2022-11-23T01:21:05.447Z,983.05
2022-11-23T01:22:05.524Z,983.07
2022-11-23T01:23:05.432Z,983.02
2022-11-23T01:24:05.425Z,983.03
2022-11-23T01:25:05.450Z,983.03
2022-11-23T01:26:05.445Z,983.00
2022-11-23T01:27:05.398Z,983.00
2022-11-23T01:28:05.398Z,983.02
2022-11-23T01:29:05.390Z,983.03
2022-11-23T01:30:05.412Z,983.15
2022-11-23T01:31:05.392Z,983.16
2022-11-23T01:32:05.360Z,983.15
2022-11-23T01:33:05.401Z,983.21
2022-11-23T01:34:05.432Z,983.13
2022-11-23T01:35:05.388Z,983.18
2022-11-23T01:36:05.330Z,983.18
2022-11-23T01:37:05.320Z,983.19
2022-11-23T01:38:05.313Z,983.12
2022-11-23T01:39:05.301Z,983.23
2022-11-23T01:40:05.442Z,983.18
2022-11-23T01:41:05.284Z,983.20
2022-11-23T01:42:05.269Z,983.21
2022-11-23T01:43:05.265Z,983.21
2022-11-23T01:44:05.262Z,983.22
2022-11-23T01:45:05.271Z,983.25
2022-11-23T01:46:05.248Z,983.21
2022-11-23T01:47:05.232Z,983.21
2022-11-23T01:48:05.237Z,983.22
2022-11-23T01:49:05.210Z,983.24
2022-11-23T01:50:05.229Z,983.22
2022-11-23T01:51:05.200Z,983.28
2022-11-23T01:52:06.196Z,983.30
2022-11-23T01:53:05.194Z,983.32
2022-11-23T01:54:05.169Z,983.32
2022-11-23T01:55:08.664Z,983.28
2022-11-23T01:56:06.168Z,983.31
2022-11-23T01:57:05.146Z,983.32
2022-11-23T01:58:05.146Z,983.39
2022-11-23T01:59:05.134Z,983.31
2022-11-23T02:00:05.195Z,983.31
2022-11-23T02:01:05.124Z,983.28
2022-11-23T02:02:05.114Z,983.32
2022-11-23T02:03:05.175Z,983.27
2022-11-23T02:04:05.091Z,983.28
2022-11-23T02:05:05.109Z,983.32
2022-11-23T02:06:05.073Z,983.32
2022-11-23T02:07:05.135Z,983.27
2022-11-23T02:08:05.065Z,983.29
2022-11-23T02:09:05.064Z,983.26
2022-11-23T02:10:05.078Z,983.34
2022-11-23T02:11:05.036Z,983.34
2022-11-23T02:12:05.028Z,983.40
2022-11-23T02:13:05.018Z,983.39
2022-11-23T02:14:05.015Z,983.37
2022-11-23T02:15:05.036Z,983.38
2022-11-23T02:16:04.996Z,983.36
2022-11-23T02:17:04.988Z,983.35
2022-11-23T02:18:05.029Z,983.35
2022-11-23T02:19:04.980Z,983.36
2022-11-23T02:20:05.003Z,983.33
2022-11-23T02:21:04.980Z,983.30
2022-11-23T02:22:04.946Z,983.34
2022-11-23T02:23:04.942Z,983.31
2022-11-23T02:24:04.936Z,983.34
2022-11-23T02:25:04.911Z,983.35
2022-11-23T02:26:05.948Z,983.34
2022-11-23T02:27:04.911Z,983.37
2022-11-23T02:28:04.900Z,983.31
2022-11-23T02:29:04.890Z,983.34
2022-11-23T02:30:04.881Z,983.31
2022-11-23T02:31:04.906Z,983.34
2022-11-23T02:32:04.858Z,983.33
2022-11-23T02:33:05.866Z,983.33
2022-11-23T02:34:04.855Z,983.27
2022-11-23T02:35:04.850Z,983.34
2022-11-23T02:36:04.862Z,983.29
2022-11-23T02:37:04.823Z,983.25
2022-11-23T02:38:04.841Z,983.37
2022-11-23T02:39:04.814Z,983.32
2022-11-23T02:40:04.967Z,983.30
2022-11-23T02:41:04.823Z,983.27
2022-11-23T02:42:04.784Z,983.30
2022-11-23T02:43:04.781Z,983.22
2022-11-23T02:44:04.779Z,983.29
2022-11-23T02:45:04.759Z,983.25
2022-11-23T02:46:04.790Z,983.26
2022-11-23T02:47:04.774Z,983.22
2022-11-23T02:48:04.744Z,983.28
2022-11-23T02:49:04.725Z,983.16
2022-11-23T02:50:04.746Z,983.19
2022-11-23T02:51:04.765Z,983.22
2022-11-23T02:52:04.705Z,983.21
2022-11-23T02:53:05.743Z,983.20
2022-11-23T02:54:04.688Z,983.24
2022-11-23T02:55:04.690Z,983.24
2022-11-23T02:56:04.742Z,983.22
2022-11-23T02:57:04.657Z,983.20
2022-11-23T02:58:04.676Z,983.24
2022-11-23T02:59:04.642Z,983.21
2022-11-23T03:00:04.638Z,983.18
2022-11-23T03:01:04.776Z,983.23
2022-11-23T03:02:04.623Z,983.27
2022-11-23T03:03:04.611Z,983.33
2022-11-23T03:04:04.600Z,983.28
2022-11-23T03:05:04.593Z,983.29
2022-11-23T03:06:04.611Z,983.30
2022-11-23T03:07:04.605Z,983.29
2022-11-23T03:08:04.570Z,983.31
2022-11-23T03:09:04.564Z,983.31
2022-11-23T03:10:04.552Z,983.24
2022-11-23T03:11:04.569Z,983.30
2022-11-23T03:12:04.543Z,983.32
2022-11-23T03:13:04.536Z,983.28
2022-11-23T03:14:04.521Z,983.31
2022-11-23T03:15:04.515Z,983.30
2022-11-23T03:16:04.546Z,983.29
2022-11-23T03:17:04.497Z,983.31
2022-11-23T03:18:04.485Z,983.33
2022-11-23T03:19:04.480Z,983.36
2022-11-23T03:20:04.462Z,983.34
2022-11-23T03:21:04.485Z,983.29
2022-11-23T03:22:04.452Z,983.38
2022-11-23T03:23:04.441Z,983.38
2022-11-23T03:24:04.431Z,983.44
2022-11-23T03:25:04.429Z,983.36
2022-11-23T03:26:07.363Z,983.37
2022-11-23T03:27:06.414Z,983.36
2022-11-23T03:28:04.403Z,983.32
2022-11-23T03:29:04.406Z,983.34
2022-11-23T03:30:04.399Z,983.39
2022-11-23T03:31:04.382Z,983.36
2022-11-23T03:32:04.400Z,983.39
2022-11-23T03:33:04.392Z,983.39
2022-11-23T03:34:04.372Z,983.42
2022-11-23T03:35:04.365Z,983.44
2022-11-23T03:36:04.344Z,983.41
2022-11-23T03:37:04.364Z,983.43
2022-11-23T03:38:04.328Z,983.48
2022-11-23T03:39:04.316Z,983.43
2022-11-23T03:40:04.303Z,983.48
2022-11-23T03:41:04.296Z,983.41
2022-11-23T03:42:04.318Z,983.37
2022-11-23T03:43:04.282Z,983.41
2022-11-23T03:44:04.266Z,983.43
2022-11-23T03:45:04.279Z,983.43
2022-11-23T03:46:04.247Z,983.40
2022-11-23T03:47:04.276Z,983.45
2022-11-23T03:48:04.238Z,983.43
2022-11-23T03:49:04.271Z,983.39
2022-11-23T03:50:04.220Z,983.40
2022-11-23T03:51:04.211Z,983.42
2022-11-23T03:52:04.311Z,983.49
2022-11-23T03:53:05.215Z,983.44
2022-11-23T03:54:04.185Z,983.46
2022-11-23T03:55:04.181Z,983.45
2022-11-23T03:56:04.167Z,983.41
2022-11-23T03:57:04.187Z,983.39
2022-11-23T03:58:04.158Z,983.41
2022-11-23T03:59:04.149Z,983.43
2022-11-23T04:00:04.142Z,983.46
2022-11-23T04:01:04.176Z,983.41
2022-11-23T04:02:04.142Z,983.45
2022-11-23T04:03:04.109Z,983.42
2022-11-23T04:04:04.105Z,983.42
2022-11-23T04:05:04.090Z,983.47
2022-11-23T04:06:04.091Z,983.46
2022-11-23T04:07:04.237Z,983.48
2022-11-23T04:08:04.078Z,983.46
2022-11-23T04:09:04.063Z,983.41
2022-11-23T04:10:04.056Z,983.44
2022-11-23T04:11:04.047Z,983.46
2022-11-23T04:12:04.081Z,983.43
2022-11-23T04:13:04.075Z,983.47
2022-11-23T04:14:04.029Z,983.48
2022-11-23T04:15:04.010Z,983.47
2022-11-23T04:16:04.002Z,983.43
2022-11-23T04:17:04.043Z,983.42
2022-11-23T04:18:03.994Z,983.37
2022-11-23T04:19:03.972Z,983.46
2022-11-23T04:20:03.969Z,983.43
2022-11-23T04:21:03.957Z,983.39
2022-11-23T04:22:03.987Z,983.43
2022-11-23T04:23:03.939Z,983.39
2022-11-23T04:24:03.947Z,983.40
2022-11-23T04:25:03.927Z,983.38
2022-11-23T04:26:03.921Z,983.39
2022-11-23T04:27:03.943Z,983.35
2022-11-23T04:28:03.900Z,983.38
2022-11-23T04:29:03.889Z,983.36
2022-11-23T04:30:03.902Z,983.31
2022-11-23T04:31:03.878Z,983.34
2022-11-23T04:32:03.894Z,983.35
2022-11-23T04:33:03.863Z,983.35
2022-11-23T04:34:03.853Z,983.34
2022-11-23T04:35:03.845Z,983.34
2022-11-23T04:36:03.833Z,983.30
2022-11-23T04:37:03.862Z,983.32
2022-11-23T04:38:03.819Z,983.41
2022-11-23T04:39:03.809Z,983.33
2022-11-23T04:40:03.816Z,983.40
2022-11-23T04:41:03.792Z,983.32
2022-11-23T04:42:03.816Z,983.35
2022-11-23T04:43:03.793Z,983.31
2022-11-23T04:44:03.853Z,983.33
2022-11-23T04:45:03.765Z,983.37
2022-11-23T04:46:03.750Z,983.40
2022-11-23T04:47:03.796Z,983.42
2022-11-23T04:48:03.752Z,983.50
2022-11-23T04:49:03.728Z,983.43
2022-11-23T04:50:03.730Z,983.44
2022-11-23T04:51:03.711Z,983.44
2022-11-23T04:52:03.746Z,983.36
2022-11-23T04:53:03.689Z,983.41
2022-11-23T04:54:03.698Z,983.43
2022-11-23T04:55:03.677Z,983.45
2022-11-23T04:56:03.679Z,983.44
2022-11-23T04:57:03.711Z,983.47
2022-11-23T04:58:03.657Z,983.41
2022-11-23T04:59:03.664Z,983.37
2022-11-23T05:00:03.641Z,983.40
2022-11-23T05:01:03.723Z,983.43
2022-11-23T05:02:03.657Z,983.40
2022-11-23T05:03:03.618Z,983.45
2022-11-23T05:04:03.620Z,983.38
2022-11-23T05:05:03.604Z,983.41
2022-11-23T05:06:03.591Z,983.36
2022-11-23T05:07:03.806Z,983.47
2022-11-23T05:08:03.578Z,983.43
2022-11-23T05:09:03.569Z,983.43
2022-11-23T05:10:03.577Z,983.47
2022-11-23T05:11:03.556Z,983.42
2022-11-23T05:12:03.569Z,983.45
2022-11-23T05:13:03.533Z,983.45
2022-11-23T05:14:03.530Z,983.46
2022-11-23T05:15:03.519Z,983.47
2022-11-23T05:16:03.510Z,983.40
2022-11-23T05:17:03.536Z,983.45
2022-11-23T05:18:03.491Z,983.43
2022-11-23T05:19:03.495Z,983.38
2022-11-23T05:20:03.482Z,983.41
2022-11-23T05:21:03.473Z,983.41
2022-11-23T05:22:03.495Z,983.43
2022-11-23T05:23:03.461Z,983.40
2022-11-23T05:24:03.444Z,983.39
2022-11-23T05:25:03.445Z,983.43
2022-11-23T05:26:03.425Z,983.44
2022-11-23T05:27:03.443Z,983.41
2022-11-23T05:28:11.419Z,983.46
2022-11-23T05:29:05.388Z,983.48
2022-11-23T05:30:03.436Z,983.48
2022-11-23T05:31:03.390Z,983.48
2022-11-23T05:32:03.434Z,983.49
2022-11-23T05:33:03.370Z,983.55
2022-11-23T05:34:04.365Z,983.51
2022-11-23T05:35:03.350Z,983.46
2022-11-23T05:36:03.341Z,983.47
2022-11-23T05:37:03.368Z,983.47
2022-11-23T05:38:03.321Z,983.51
2022-11-23T05:39:03.313Z,983.52
2022-11-23T05:40:03.313Z,983.43
2022-11-23T05:41:03.290Z,983.49
2022-11-23T05:42:03.323Z,983.48
2022-11-23T05:43:03.284Z,983.51
2022-11-23T05:44:03.277Z,983.53
2022-11-23T05:45:07.409Z,983.52
2022-11-23T05:46:04.252Z,983.51
2022-11-23T05:47:03.280Z,983.50
2022-11-23T05:48:03.236Z,983.50
2022-11-23T05:49:03.265Z,983.50
2022-11-23T05:50:03.226Z,983.50
2022-11-23T05:51:05.475Z,983.53
2022-11-23T05:52:04.249Z,983.45
2022-11-23T05:53:03.197Z,983.49
2022-11-23T05:54:03.186Z,983.46
2022-11-23T05:55:03.189Z,983.48
2022-11-23T05:56:03.174Z,983.50
2022-11-23T05:57:03.201Z,983.52
2022-11-23T05:58:03.156Z,983.52
2022-11-23T05:59:03.175Z,983.49
2022-11-23T06:00:03.151Z,983.52
2022-11-23T06:01:03.138Z,983.51
2022-11-23T06:02:03.203Z,983.59
2022-11-23T06:03:03.120Z,983.55
2022-11-23T06:04:03.155Z,983.54
2022-11-23T06:05:03.154Z,983.59
2022-11-23T06:06:03.154Z,983.57
2022-11-23T06:07:03.312Z,983.49
2022-11-23T06:08:03.087Z,983.56
2022-11-23T06:09:03.071Z,983.57
2022-11-23T06:10:03.057Z,983.57
2022-11-23T06:11:03.053Z,983.56
2022-11-23T06:12:03.312Z,983.54
2022-11-23T06:13:03.041Z,983.53
2022-11-23T06:14:03.030Z,983.58
2022-11-23T06:15:03.027Z,983.55
2022-11-23T06:16:03.015Z,983.55
2022-11-23T06:17:03.091Z,983.59
2022-11-23T06:18:02.990Z,983.59
2022-11-23T06:19:02.988Z,983.55
2022-11-23T06:20:02.975Z,983.64
2022-11-23T06:21:03.975Z,983.59
2022-11-23T06:22:02.963Z,983.63
2022-11-23T06:23:02.979Z,983.58
2022-11-23T06:24:02.940Z,983.57
2022-11-23T06:25:02.943Z,983.61
2022-11-23T06:26:02.933Z,983.59
2022-11-23T06:27:02.929Z,983.59
2022-11-23T06:28:02.949Z,983.57
2022-11-23T06:29:02.907Z,983.56
2022-11-23T06:30:02.903Z,983.63
2022-11-23T06:31:02.907Z,983.58
2022-11-23T06:32:02.894Z,983.62
2022-11-23T06:33:02.905Z,983.61
2022-11-23T06:34:02.860Z,983.62
2022-11-23T06:35:02.851Z,983.71
2022-11-23T06:36:02.855Z,983.66
2022-11-23T06:37:02.851Z,983.70
2022-11-23T06:38:02.860Z,983.69
2022-11-23T06:39:02.824Z,983.67
2022-11-23T06:40:02.828Z,983.69
2022-11-23T06:41:02.812Z,983.71
2022-11-23T06:42:30.987Z,983.70
2022-11-23T06:43:04.822Z,983.72
2022-11-23T06:44:02.781Z,983.69
2022-11-23T06:45:02.781Z,983.73
2022-11-23T06:46:02.764Z,983.68
2022-11-23T06:47:02.760Z,983.68
2022-11-23T06:48:03.789Z,983.74
2022-11-23T06:49:02.755Z,983.73
2022-11-23T06:50:02.761Z,983.66
2022-11-23T06:51:02.744Z,983.72
2022-11-23T06:52:02.722Z,983.75
2022-11-23T06:53:02.754Z,983.74
2022-11-23T06:54:02.706Z,983.82
2022-11-23T06:55:02.702Z,983.74
2022-11-23T06:56:02.702Z,983.79
2022-11-23T06:57:02.679Z,983.81
2022-11-23T06:58:02.702Z,983.78
2022-11-23T06:59:02.661Z,983.84
2022-11-23T07:00:02.657Z,983.84
2022-11-23T07:01:02.713Z,983.85
2022-11-23T07:02:02.638Z,983.85
2022-11-23T07:03:02.656Z,983.83
2022-11-23T07:04:02.623Z,983.88
2022-11-23T07:05:02.615Z,983.88
2022-11-23T07:06:02.620Z,983.94
2022-11-23T07:07:02.592Z,983.91
2022-11-23T07:08:03.622Z,983.96
2022-11-23T07:09:02.578Z,984.01
2022-11-23T07:10:06.804Z,983.94
2022-11-23T07:11:03.568Z,983.99
2022-11-23T07:12:02.559Z,984.00
2022-11-23T07:13:02.573Z,983.99
2022-11-23T07:14:02.540Z,984.02
2022-11-23T07:15:02.547Z,983.95
2022-11-23T07:16:02.525Z,984.02
2022-11-23T07:17:02.519Z,983.97
2022-11-23T07:18:02.651Z,984.02
2022-11-23T07:19:02.503Z,984.02
2022-11-23T07:20:02.565Z,984.08
2022-11-23T07:21:02.478Z,984.04
2022-11-23T07:22:03.482Z,984.07
2022-11-23T07:23:02.734Z,984.01
2022-11-23T07:24:02.462Z,984.13
2022-11-23T07:25:02.464Z,984.05
2022-11-23T07:26:02.448Z,984.02
2022-11-23T07:27:02.454Z,984.06
2022-11-23T07:28:02.465Z,984.08
2022-11-23T07:29:02.439Z,984.07
2022-11-23T07:30:02.437Z,984.06
2022-11-23T07:31:02.408Z,984.05
2022-11-23T07:32:02.401Z,984.08
2022-11-23T07:33:02.423Z,984.12
2022-11-23T07:34:02.378Z,984.09
2022-11-23T07:35:02.398Z,984.14
2022-11-23T07:36:02.361Z,984.10
2022-11-23T07:37:02.479Z,984.09
2022-11-23T07:38:02.381Z,984.10
2022-11-23T07:39:02.334Z,984.17
2022-11-23T07:40:02.705Z,984.15
2022-11-23T07:41:02.359Z,984.09
2022-11-23T07:42:30.913Z,984.12
2022-11-23T07:43:04.354Z,984.13
2022-11-23T07:44:02.312Z,984.09
2022-11-23T07:45:02.292Z,984.14
2022-11-23T07:46:02.281Z,984.11
2022-11-23T07:47:02.284Z,984.20
2022-11-23T07:48:02.326Z,984.15
2022-11-23T07:49:02.272Z,984.17
2022-11-23T07:50:02.247Z,984.19
2022-11-23T07:51:02.309Z,984.12
2022-11-23T07:52:02.238Z,984.16
2022-11-23T07:53:02.276Z,984.16
2022-11-23T07:54:02.225Z,984.12
2022-11-23T07:55:02.214Z,984.17
2022-11-23T07:56:02.203Z,984.17
2022-11-23T07:57:02.209Z,984.13
2022-11-23T07:58:02.227Z,984.10
2022-11-23T07:59:02.223Z,984.16
2022-11-23T08:00:02.175Z,984.09
2022-11-23T08:01:02.160Z,984.11
2022-11-23T08:02:02.227Z,984.09
2022-11-23T08:03:26.700Z,984.14
2022-11-23T08:04:04.165Z,984.06
2022-11-23T08:05:02.137Z,984.14
2022-11-23T08:06:02.122Z,984.10
2022-11-23T08:07:02.118Z,984.13
2022-11-23T08:08:02.131Z,984.05
2022-11-23T08:09:02.144Z,984.10
2022-11-23T08:10:02.103Z,984.11
2022-11-23T08:11:03.094Z,984.13
2022-11-23T08:12:02.085Z,984.12
2022-11-23T08:13:02.073Z,984.12
2022-11-23T08:14:02.090Z,984.22
2022-11-23T08:15:02.053Z,984.09
2022-11-23T08:16:02.047Z,984.07
2022-11-23T08:17:02.039Z,984.08
2022-11-23T08:18:02.027Z,983.90
2022-11-23T08:19:02.045Z,983.98
2022-11-23T08:20:02.051Z,984.06
2022-11-23T08:21:01.998Z,984.02
2022-11-23T08:22:01.992Z,984.07
2022-11-23T08:23:01.983Z,984.07
2022-11-23T08:24:02.004Z,984.08
2022-11-23T08:25:01.961Z,984.13
2022-11-23T08:26:01.955Z,984.10
2022-11-23T08:27:01.949Z,984.06
2022-11-23T08:28:01.954Z,984.10
2022-11-23T08:29:01.958Z,984.16
2022-11-23T08:30:01.931Z,984.15
2022-11-23T08:31:01.919Z,984.09
2022-11-23T08:32:01.924Z,984.15
2022-11-23T08:33:01.905Z,984.16
2022-11-23T08:34:03.761Z,984.21
2022-11-23T08:35:02.884Z,984.17
2022-11-23T08:36:01.876Z,984.12
2022-11-23T08:37:01.866Z,984.19
2022-11-23T08:38:01.860Z,984.09
2022-11-23T08:39:01.886Z,984.16
2022-11-23T08:40:01.844Z,984.20
2022-11-23T08:41:01.829Z,984.23
2022-11-23T08:42:01.819Z,984.15
2022-11-23T08:43:01.832Z,984.26
2022-11-23T08:44:01.839Z,984.22
2022-11-23T08:45:01.800Z,984.25
2022-11-23T08:46:05.589Z,984.21
2022-11-23T08:47:03.789Z,984.31
2022-11-23T08:48:01.809Z,984.10
2022-11-23T08:49:01.790Z,983.98
2022-11-23T08:50:01.759Z,984.30
2022-11-23T08:51:01.755Z,984.12
2022-11-23T08:52:01.742Z,984.00
2022-11-23T08:53:01.737Z,984.06
2022-11-23T08:54:01.771Z,984.09
2022-11-23T08:55:01.803Z,984.17
2022-11-23T08:56:01.709Z,984.28
2022-11-23T08:57:01.702Z,983.98
2022-11-23T08:58:01.713Z,983.96
2022-11-23T08:59:01.709Z,984.12
2022-11-23T09:00:01.676Z,984.05
2022-11-23T09:01:01.675Z,983.96
2022-11-23T09:02:01.694Z,984.21
2022-11-23T09:03:01.641Z,984.07
2022-11-23T09:04:02.676Z,983.99
2022-11-23T09:05:01.638Z,984.04
2022-11-23T09:06:01.617Z,984.22
2022-11-23T09:07:02.643Z,984.22
2022-11-23T09:08:01.624Z,984.24
2022-11-23T09:09:01.628Z,984.18
2022-11-23T09:10:01.592Z,984.19
2022-11-23T09:11:01.592Z,984.23
2022-11-23T09:12:01.575Z,983.96
2022-11-23T09:13:01.576Z,984.10
2022-11-23T09:14:01.598Z,984.02
2022-11-23T09:15:01.547Z,984.13
2022-11-23T09:16:01.543Z,984.03
2022-11-23T09:17:01.540Z,984.26
2022-11-23T09:18:01.520Z,984.06
2022-11-23T09:19:01.552Z,984.02
2022-11-23T09:20:01.525Z,984.00
2022-11-23T09:21:01.505Z,984.00
2022-11-23T09:22:01.514Z,984.07
2022-11-23T09:23:01.521Z,984.03
2022-11-23T09:24:01.508Z,984.01
2022-11-23T09:25:01.567Z,984.06
2022-11-23T09:26:01.469Z,984.08
2022-11-23T09:27:01.458Z,983.99
2022-11-23T09:28:01.450Z,984.07
2022-11-23T09:29:01.516Z,984.10
2022-11-23T09:30:01.435Z,984.07
2022-11-23T09:31:01.437Z,984.15
2022-11-23T09:32:01.423Z,984.06
2022-11-23T09:33:01.421Z,984.01
2022-11-23T09:34:01.431Z,984.12
2022-11-23T09:35:01.410Z,984.06
2022-11-23T09:36:01.418Z,984.13
2022-11-23T09:37:01.374Z,984.06
2022-11-23T09:38:01.368Z,984.10
2022-11-23T09:39:01.391Z,984.05
2022-11-23T09:40:01.350Z,984.08
2022-11-23T09:41:01.340Z,984.03
2022-11-23T09:42:01.332Z,984.01
2022-11-23T09:43:01.342Z,983.94
2022-11-23T09:44:01.354Z,984.00
2022-11-23T09:45:01.325Z,984.04
2022-11-23T09:46:01.303Z,984.05
2022-11-23T09:47:01.284Z,984.02
2022-11-23T09:48:01.283Z,984.06
2022-11-23T09:49:01.270Z,984.06
2022-11-23T09:50:01.330Z,984.08
2022-11-23T09:51:01.304Z,984.12
2022-11-23T09:52:01.259Z,984.15
2022-11-23T09:53:02.239Z,984.26
2022-11-23T09:54:01.264Z,984.16
2022-11-23T09:55:01.226Z,984.21
2022-11-23T09:56:01.218Z,984.06
2022-11-23T09:57:02.075Z,984.14
2022-11-23T09:58:02.200Z,984.14
2022-11-23T09:59:01.195Z,984.14
2022-11-23T10:00:01.213Z,984.11
2022-11-23T10:01:01.193Z,984.22
2022-11-23T10:02:01.239Z,984.18
2022-11-23T10:03:01.155Z,984.24
2022-11-23T10:04:01.146Z,983.96
2022-11-23T10:05:01.177Z,983.97
2022-11-23T10:06:01.159Z,983.97
2022-11-23T10:07:01.130Z,984.01
2022-11-23T10:08:01.127Z,983.96
2022-11-23T10:09:01.152Z,983.96
2022-11-23T10:10:01.165Z,984.05
2022-11-23T10:11:01.090Z,984.04
2022-11-23T10:12:01.085Z,984.01
2022-11-23T10:13:01.072Z,984.02
2022-11-23T10:14:01.078Z,984.11
2022-11-23T10:15:01.084Z,984.06
2022-11-23T10:16:01.043Z,983.99
2022-11-23T10:17:01.043Z,984.02
2022-11-23T10:18:01.044Z,984.02
2022-11-23T10:19:01.025Z,984.02
2022-11-23T10:20:01.055Z,984.05
2022-11-23T10:21:01.032Z,984.20
2022-11-23T10:22:00.997Z,984.17
2022-11-23T10:23:00.987Z,984.19
2022-11-23T10:24:00.975Z,984.11
2022-11-23T10:25:00.999Z,984.08
2022-11-23T10:26:00.959Z,984.09
2022-11-23T10:27:00.949Z,984.02
2022-11-23T10:28:00.951Z,984.08
2022-11-23T10:29:00.943Z,984.13
2022-11-23T10:30:00.967Z,984.09
2022-11-23T10:31:00.921Z,984.13
2022-11-23T10:32:00.920Z,984.05
2022-11-23T10:33:00.920Z,984.06
2022-11-23T10:34:00.891Z,984.09
2022-11-23T10:35:00.919Z,984.02
2022-11-23T10:36:00.925Z,983.99
2022-11-23T10:37:00.945Z,984.03
2022-11-23T10:38:01.900Z,984.04
2022-11-23T10:39:00.862Z,984.03
2022-11-23T10:40:00.872Z,984.00
2022-11-23T10:41:01.846Z,984.05
2022-11-23T10:42:00.829Z,984.06
2022-11-23T10:43:00.833Z,984.06
2022-11-23T10:44:00.815Z,984.03
2022-11-23T10:45:00.864Z,984.05
2022-11-23T10:46:00.803Z,984.20
2022-11-23T10:47:00.797Z,984.05
2022-11-23T10:48:01.821Z,984.10
2022-11-23T10:49:00.784Z,984.12
2022-11-23T10:50:00.765Z,984.09
2022-11-23T10:51:01.790Z,984.10
2022-11-23T10:52:00.755Z,984.05
2022-11-23T10:53:00.741Z,984.01
2022-11-23T10:54:04.883Z,983.98
2022-11-23T10:55:01.731Z,984.07
2022-11-23T10:56:00.756Z,984.01
2022-11-23T10:57:00.712Z,984.00
2022-11-23T10:58:00.708Z,983.97
2022-11-23T10:59:00.708Z,984.05
2022-11-23T11:00:00.697Z,983.99
2022-11-23T11:01:00.714Z,984.00
2022-11-23T11:02:00.752Z,983.97
2022-11-23T11:03:00.665Z,983.96
2022-11-23T11:04:00.660Z,984.02
2022-11-23T11:05:00.653Z,984.07
2022-11-23T11:06:09.949Z,984.00
2022-11-23T11:07:02.639Z,984.04
2022-11-23T11:08:00.625Z,983.99
2022-11-23T11:09:03.555Z,984.07
2022-11-23T11:10:01.607Z,984.02
2022-11-23T11:11:00.634Z,984.00
2022-11-23T11:12:00.600Z,983.98
2022-11-23T11:13:00.586Z,984.00
2022-11-23T11:14:00.575Z,983.98
2022-11-23T11:15:10.396Z,984.08
2022-11-23T11:16:02.592Z,983.99
2022-11-23T11:17:00.554Z,983.92
2022-11-23T11:18:00.545Z,983.93
2022-11-23T11:19:00.536Z,983.94
2022-11-23T11:20:00.534Z,983.88
2022-11-23T11:21:00.569Z,983.96
2022-11-23T11:22:00.552Z,983.87
2022-11-23T11:23:00.506Z,983.85
2022-11-23T11:24:00.496Z,983.86
2022-11-23T11:25:00.488Z,983.89
2022-11-23T11:26:00.587Z,983.83
2022-11-23T11:27:00.479Z,983.86
2022-11-23T11:28:00.477Z,983.84
2022-11-23T11:29:00.455Z,983.84
2022-11-23T11:30:00.453Z,983.86
2022-11-23T11:31:00.457Z,983.84
2022-11-23T11:32:00.457Z,983.80
2022-11-23T11:33:00.417Z,983.81
2022-11-23T11:34:00.415Z,983.80
2022-11-23T11:35:00.409Z,983.77
2022-11-23T11:36:00.405Z,983.76
2022-11-23T11:37:00.418Z,983.73
2022-11-23T11:38:00.381Z,983.70
2022-11-23T11:39:18.883Z,983.77
2022-11-23T11:40:02.403Z,983.68
2022-11-23T11:41:00.353Z,983.62
2022-11-23T11:42:00.379Z,983.68
2022-11-23T11:43:00.371Z,983.68
2022-11-23T11:44:00.343Z,983.64
2022-11-23T11:45:00.327Z,983.68
2022-11-23T11:46:21.798Z,983.71
2022-11-23T11:47:02.346Z,983.66
2022-11-23T11:48:00.310Z,983.52
2022-11-23T11:49:00.290Z,983.64
2022-11-23T11:50:00.324Z,983.64
2022-11-23T11:51:00.270Z,983.57
2022-11-23T11:52:00.402Z,983.51
2022-11-23T11:53:00.256Z,983.58
2022-11-23T11:54:00.280Z,983.50
2022-11-23T11:55:00.234Z,983.44
2022-11-23T11:56:00.244Z,983.54
2022-11-23T11:57:00.296Z,983.64
2022-11-23T11:58:00.239Z,983.61
2022-11-23T11:59:00.241Z,983.52
2022-11-23T12:00:00.200Z,983.51
2022-11-23T12:01:00.188Z,983.53
2022-11-23T12:02:00.212Z,983.46
2022-11-23T12:03:00.225Z,983.46
2022-11-23T12:04:00.160Z,983.56
2022-11-23T12:05:00.166Z,983.49
2022-11-23T12:06:00.155Z,983.49
2022-11-23T12:07:00.339Z,983.45
2022-11-23T12:08:00.204Z,983.52
2022-11-23T12:09:00.124Z,983.41
2022-11-23T12:10:00.124Z,983.39
2022-11-23T12:11:00.107Z,983.40
2022-11-23T12:12:00.345Z,983.45
2022-11-23T12:13:00.085Z,983.45
2022-11-23T12:14:00.086Z,983.40
2022-11-23T12:15:00.072Z,983.38
2022-11-23T12:16:00.072Z,983.40
2022-11-23T12:17:30.871Z,983.42
2022-11-23T12:18:02.048Z,983.39
2022-11-23T12:19:00.044Z,983.38
2022-11-23T12:20:00.030Z,983.37
2022-11-23T12:21:00.030Z,983.54
2022-11-23T12:22:00.157Z,983.37
2022-11-23T12:23:00.000Z,983.37
2022-11-23T12:23:59.994Z,983.30
2022-11-23T12:24:59.988Z,983.34
2022-11-23T12:25:59.976Z,983.37
2022-11-23T12:27:00.003Z,983.31
2022-11-23T12:27:59.962Z,983.30